Time;durP1;ratioP1;P1;durP2;ratioP2;P2;SDS_P1;SDS_P2;PMS_P1;PMS_P2;Temp;Humidity;BMP_temperature;BMP_pressure;BME280_temperature;BME280_humidity;BME280_pressure;Samples;Min_cycle;Max_cycle;Signal;HPM_P1;HPM_P2
2021/04/14 00:01:46;;;;;;;;;;;;;;;;;;;;;
2021/04/14 00:31:36;;;;;;;4.10;3.70;;;;;;;10.72;78.85;94031.81;834262;71;32657;-76
2021/04/14 01:02:04;;;;;;;;;;;;;;;;;;;;;
2021/04/14 01:31:32;;;;;;;2.00;1.90;;;;;;;10.15;79.23;94086.59;835146;71;33238;-79
2021/04/14 01:46:58;;;;;;;1.20;1.20;;;;;;;9.63;76.69;94089.46;826506;71;32546;-82
2021/04/14 03:46:32;;;;;;;2.92;2.30;;;;;;;9.09;76.83;94005.89;828809;71;31516;-78
2021/04/14 04:01:17;;;;;;;2.60;2.40;;;;;;;9.20;76.30;94015.09;826777;71;32238;-76
2021/04/14 04:16:10;;;;;;;2.95;2.72;;;;;;;9.18;75.15;94016.69;829700;71;28665;-74
2021/04/14 04:31:19;;;;;;;12.90;4.35;;;;;;;11.60;71.08;94003.55;823267;71;32125;-76
2021/04/14 04:46:10;;;;;;;3.90;3.60;;;;;;;12.45;66.76;94054.25;820511;71;29807;-76
2021/04/14 05:01:09;;;;;;;4.25;3.95;;;;;;;11.52;67.57;94081.81;827315;71;28910;-77
2021/04/14 05:16:15;;;;;;;6.03;5.42;;;;;;;10.56;69.99;94097.02;813200;71;31860;-76
2021/04/14 05:31:09;;;;;;;5.67;5.20;;;;;;;;;;826987;71;29253;-76
2021/04/14 05:46:12;;;;;;;5.95;4.90;;;;;;;9.17;70.87;94100.22;833297;71;29176;-77
2021/04/14 06:01:14;;;;;;;3.90;3.60;;;;;;;8.92;70.26;94122.36;822478;71;29320;-79
2021/04/14 06:16:10;;;;;;;3.45;3.15;;;;;;;8.27;69.50;94077.23;822657;70;29262;-75
2021/04/14 06:31:12;;;;;;;3.65;3.35;;;;;;;8.71;68.58;94151.95;827444;71;29270;-74
2021/04/14 06:46:30;;;;;;;3.45;3.17;;;;;;;8.57;68.76;94165.48;833469;71;32647;-76
2021/04/14 07:01:23;;;;;;;2.72;2.52;;;;;;;8.42;67.50;94173.78;828537;71;31722;-78
2021/04/14 07:16:32;;;;;;;3.10;2.90;;;;;;;8.39;67.46;94191.33;833337;71;32249;-77
2021/04/14 07:31:29;;;;;;;3.12;2.92;;;;;;;8.35;67.33;94208.63;826813;71;31731;-77
2021/04/14 07:46:10;;;;;;;2.50;2.40;;;;;;;8.46;66.21;94206.69;827696;71;29709;-74
2021/04/14 08:01:22;;;;;;;2.92;2.72;;;;;;;8.70;66.62;94201.92;827842;71;33514;-77
2021/04/14 08:16:18;;;;;;;2.92;2.70;;;;;;;8.72;66.70;94211.57;826640;71;32726;-75
2021/04/14 08:31:18;;;;;;;2.58;2.47;;;;;;;8.85;66.29;94218.73;826327;71;32770;-75
2021/04/14 08:46:15;;;;;;;2.40;2.30;;;;;;;9.31;63.77;94209.43;834341;71;30326;-76
2021/04/14 09:01:48;;;;;;;3.10;2.80;;;;;;;10.04;60.71;94189.56;820530;71;32762;-75
2021/04/14 09:16:15;;;;;;;3.00;2.80;;;;;;;10.82;61.24;161519.55;827335;71;33143;-75
2021/04/14 09:31:13;;;;;;;3.20;3.00;;;;;;;11.60;57.86;94186.19;827491;71;29711;-76
2021/04/14 09:46:17;;;;;;;3.72;3.40;;;;;;;12.52;59.57;94176.39;828377;71;32653;-74
2021/04/14 10:01:22;;;;;;;4.37;3.98;;;;;;;12.00;53.73;94174.41;833300;71;33531;-76
2021/04/14 10:16:12;;;;;;;10.70;8.75;;;;;;;12.06;57.20;94167.69;818848;70;31358;-76
2021/04/14 10:31:17;;;;;;;3.60;3.40;;;;;;;12.71;51.89;94175.33;828776;71;30391;-74
2021/04/14 10:46:17;;;;;;;4.75;4.35;;;;;;;11.96;51.73;94179.25;828121;71;29712;-75
2021/04/14 11:01:18;;;;;;;5.05;4.65;;;;;;;11.72;52.64;94176.95;827327;71;33289;-74
2021/04/14 11:16:16;;;;;;;4.95;4.65;;;;;;;12.09;52.23;94177.61;826906;71;32754;-75
2021/04/14 11:31:09;;;;;;;5.50;5.00;;;;;;;11.85;51.88;94199.75;827139;71;30431;-75
2021/04/14 11:46:12;;;;;;;5.90;5.22;;;;;;;11.30;52.07;94203.46;833242;71;29722;-75
2021/04/14 12:01:12;;;;;;;5.65;5.25;;;;;;;10.99;52.28;94194.21;827901;71;30505;-75
2021/04/14 12:16:16;;;;;;;4.75;4.45;;;;;;;11.22;53.35;94187.11;826449;71;32962;-76
2021/04/14 12:31:15;;;;;;;6.30;5.70;;;;;;;11.92;51.09;94185.67;833011;71;33465;-75
2021/04/14 12:32:21;;;;;;;5.85;5.35;;;;;;;11.89;51.12;94184.95;815542;72;26544;-75
2021/04/14 12:33:26;;;;;;;7.12;5.83;;;;;;;11.92;51.22;94183.05;821024;72;26277;-75
2021/04/14 12:34:30;;;;;;;5.78;5.15;;;;;;;12.04;51.19;94183.77;821044;72;26346;-76
2021/04/14 12:35:34;;;;;;;6.12;5.53;;;;;;;12.22;51.12;94184.60;820897;72;26277;-74
2021/04/14 12:36:38;;;;;;;6.53;5.70;;;;;;;12.43;50.86;94188.78;818106;71;26642;-74
2021/04/14 12:37:42;;;;;;;5.90;5.50;;;;;;;12.67;50.44;94190.19;811700;71;26346;-75
2021/04/14 12:38:47;;;;;;;5.62;5.22;;;;;;;12.89;49.73;94182.16;809446;72;26419;-75
2021/04/14 12:39:51;;;;;;;5.50;4.87;;;;;;;13.12;49.28;94182.00;810713;71;26783;-76
2021/04/14 12:40:59;;;;;;;5.62;5.20;;;;;;;13.29;48.58;94180.70;820934;71;26289;-74
2021/04/14 12:42:04;;;;;;;5.67;5.28;;;;;;;13.47;48.22;94178.83;808003;73;26663;-75
2021/04/14 12:43:11;;;;;;;5.17;4.87;;;;;;;13.61;47.64;94187.88;808120;73;26309;-75
2021/04/14 12:44:17;;;;;;;5.25;4.75;;;;;;;13.69;47.41;94188.39;806986;72;27042;-76
2021/04/14 12:45:49;;;;;;;6.33;5.83;;;;;;;13.76;47.25;94187.34;807285;73;26261;-77
2021/04/14 12:46:52;;;;;;;5.45;4.67;;;;;;;13.79;47.22;94184.09;806371;73;26320;-74
2021/04/14 13:01:17;;;;;;;5.15;4.78;;;;;;;13.54;46.35;94175.70;827034;71;33155;-74
2021/04/14 13:31:18;;;;;;;5.60;5.10;;;;;;;11.81;48.41;94178.55;827076;71;30882;-75
2021/04/14 13:46:26;;;;;;;5.78;5.28;;;;;;;11.66;49.55;94186.04;834366;71;29650;-75
2021/04/14 14:01:11;;;;;;;5.65;5.05;;;;;;;11.49;49.56;94207.20;833344;71;29688;-76
2021/04/14 14:16:34;;;;;;;4.85;4.55;;;;;;;11.74;49.47;94204.50;826897;71;32746;-74
2021/04/14 14:31:16;;;;;;;4.97;4.53;;;;;;;11.88;48.45;94225.97;826957;71;33221;-74
2021/04/14 14:46:31;;;;;;;5.20;4.70;;;;;;;11.41;49.25;94245.50;833125;71;32805;-76
2021/04/14 15:01:48;;;;;;;6.60;6.00;;;;;;;10.93;50.23;94228.18;833134;71;33228;-75
2021/04/14 15:16:09;;;;;;;5.62;5.10;;;;;;;10.46;50.75;94236.77;828049;71;30548;-75
2021/04/14 15:31:11;;;;;;;5.40;4.90;;;;;;;9.86;51.66;94254.64;827670;71;30481;-74
2021/04/14 15:46:17;;;;;;;7.42;5.53;;;;;;;;;;818241;71;33555;-76
2021/04/14 16:01:17;;;;;;;5.22;4.83;;;;;;;9.31;53.72;94274.89;834341;71;30194;-76
2021/04/14 16:16:15;;;;;;;4.85;4.45;;;;;;;8.87;54.14;94259.00;833391;71;32680;-75
